createdAt,value
2022-08-19T00:01:57.038Z,100819.91
2022-08-19T00:04:31.838Z,100814.72
2022-08-19T00:06:59.358Z,100808.78
2022-08-19T00:09:27.286Z,100812.41
2022-08-19T00:11:56.397Z,100808.13
2022-08-19T00:14:25.317Z,100796.78
2022-08-19T00:16:55.219Z,100803.91
2022-08-19T00:19:23.989Z,100809.41
2022-08-19T00:21:52.285Z,100801.59
2022-08-19T00:24:19.852Z,100810.63
2022-08-19T00:26:47.175Z,100806.22
2022-08-19T00:29:18.171Z,100816.13
2022-08-19T00:31:46.868Z,100801.47
2022-08-19T00:34:15.515Z,100812.50
2022-08-19T00:36:43.692Z,100807.91
2022-08-19T00:39:12.324Z,100813.50
2022-08-19T00:41:41.404Z,100811.84
2022-08-19T00:44:15.983Z,100822.50
2022-08-19T00:46:55.565Z,100813.59
2022-08-19T00:49:41.759Z,100815.41
2022-08-19T00:52:24.084Z,100816.25
2022-08-19T00:54:53.877Z,100818.22
2022-08-19T00:57:51.906Z,100804.22
2022-08-19T01:00:20.530Z,100811.41
2022-08-19T01:02:47.487Z,100814.34
2022-08-19T01:05:19.535Z,100827.28
2022-08-19T01:07:46.679Z,100817.59
2022-08-19T01:10:21.319Z,100810.44
2022-08-19T01:12:49.265Z,100812.94
2022-08-19T01:15:24.093Z,100813.72
2022-08-19T01:17:51.968Z,100814.50
2022-08-19T01:20:23.207Z,100816.50
2022-08-19T01:22:58.270Z,100811.41
2022-08-19T01:25:36.720Z,100814.13
2022-08-19T01:28:10.596Z,100821.09
2022-08-19T01:30:38.391Z,100824.72
2022-08-19T01:33:06.536Z,100828.00
2022-08-19T01:35:34.004Z,100821.72
2022-08-19T01:38:08.693Z,100814.56
2022-08-19T01:40:41.304Z,100811.91
2022-08-19T01:43:08.747Z,100812.09
2022-08-19T01:45:36.391Z,100811.47
2022-08-19T01:48:05.255Z,100795.66
2022-08-19T01:50:34.070Z,100797.50
2022-08-19T01:53:06.822Z,100798.16
2022-08-19T01:55:41.228Z,100807.97
2022-08-19T01:58:16.053Z,100805.50
2022-08-19T02:00:43.852Z,100794.81
2022-08-19T02:03:12.149Z,100799.81
2022-08-19T02:05:39.755Z,100798.50
2022-08-19T02:08:07.009Z,100800.69
2022-08-19T02:10:34.200Z,100808.88
2022-08-19T02:13:01.244Z,100801.97
2022-08-19T02:15:28.206Z,100810.97
2022-08-19T02:17:55.160Z,100812.78
2022-08-19T02:20:23.454Z,100812.34
2022-08-19T02:22:50.353Z,100816.25
2022-08-19T02:25:17.485Z,100825.50
2022-08-19T02:27:44.676Z,100817.03
2022-08-19T02:30:18.407Z,100823.19
2022-08-19T02:32:45.670Z,100820.44
2022-08-19T02:35:14.777Z,100809.59
2022-08-19T02:38:02.131Z,100812.22
2022-08-19T02:40:30.874Z,100811.56
2022-08-19T02:42:58.220Z,100807.31
2022-08-19T02:45:25.122Z,100818.09
2022-08-19T02:47:52.136Z,100828.72
2022-08-19T02:50:19.553Z,100840.06
2022-08-19T02:52:46.500Z,100842.66
2022-08-19T02:55:13.405Z,100867.28
2022-08-19T02:57:40.310Z,100858.97
2022-08-19T03:00:10.248Z,100852.53
2022-08-19T03:02:37.152Z,100842.66
2022-08-19T03:05:05.429Z,100847.34
2022-08-19T03:07:32.378Z,100852.75
2022-08-19T03:09:59.855Z,100841.13
2022-08-19T03:12:26.762Z,100852.38
2022-08-19T03:14:53.791Z,100861.94
2022-08-19T03:17:21.136Z,100879.31
2022-08-19T03:19:48.038Z,100878.16
2022-08-19T03:22:15.060Z,100877.72
2022-08-19T03:24:41.971Z,100881.78
2022-08-19T03:27:08.887Z,100882.28
2022-08-19T03:29:43.136Z,100889.91
2022-08-19T03:32:24.449Z,100894.00
2022-08-19T03:34:58.439Z,100891.22
2022-08-19T03:37:26.935Z,100902.63
2022-08-19T03:39:53.900Z,100906.16
2022-08-19T03:42:32.362Z,100894.00
2022-08-19T03:45:08.155Z,100890.34
2022-08-19T03:47:35.151Z,100887.34
2022-08-19T03:50:02.426Z,100875.16
2022-08-19T03:52:29.381Z,100857.75
2022-08-19T03:54:56.344Z,100865.63
2022-08-19T03:57:24.424Z,100863.72
2022-08-19T04:00:03.724Z,100864.50
2022-08-19T04:02:39.623Z,100862.53
2022-08-19T04:05:09.150Z,100874.09
2022-08-19T04:07:36.531Z,100895.06
2022-08-19T04:10:05.509Z,100908.88
2022-08-19T04:12:32.871Z,100907.66
2022-08-19T04:14:59.775Z,100908.16
2022-08-19T04:17:26.828Z,100900.78
2022-08-19T04:19:53.756Z,100890.75
2022-08-19T04:22:20.646Z,100886.94
2022-08-19T04:24:47.539Z,100873.50
2022-08-19T04:27:15.047Z,100880.63
2022-08-19T04:29:42.303Z,100885.44
2022-08-19T04:32:11.853Z,100871.59
2022-08-19T04:35:02.601Z,100882.84
2022-08-19T04:37:35.412Z,100868.03
2022-08-19T04:40:22.308Z,100866.28
2022-08-19T04:42:49.281Z,100847.28
2022-08-19T04:45:17.495Z,100850.06
2022-08-19T04:47:49.115Z,100840.94
2022-08-19T04:50:26.702Z,100825.56
2022-08-19T04:52:54.154Z,100825.25
2022-08-19T04:55:21.295Z,100837.28
2022-08-19T04:57:48.246Z,100832.38
2022-08-19T05:00:15.717Z,100829.13
2022-08-19T05:02:42.653Z,100828.31
2022-08-19T05:05:10.338Z,100827.59
2022-08-19T05:07:37.693Z,100837.22
2022-08-19T05:10:06.510Z,100832.72
2022-08-19T05:12:33.400Z,100832.75
2022-08-19T05:15:01.707Z,100817.44
2022-08-19T05:17:33.283Z,100824.53
2022-08-19T05:20:24.584Z,100832.44
2022-08-19T05:22:51.495Z,100837.41
2022-08-19T05:25:21.964Z,100832.47
2022-08-19T05:27:49.667Z,100837.44
2022-08-19T05:30:17.492Z,100836.16
2022-08-19T05:32:44.921Z,100827.19
2022-08-19T05:35:12.705Z,100828.25
2022-08-19T05:37:41.136Z,100825.88
2022-08-19T05:40:10.344Z,100821.53
2022-08-19T05:42:38.330Z,100817.22
2022-08-19T05:45:05.883Z,100818.09
2022-08-19T05:47:33.149Z,100818.63
2022-08-19T05:50:00.339Z,100821.94
2022-08-19T05:52:29.017Z,100825.59
2022-08-19T05:54:57.397Z,100822.47
2022-08-19T05:57:25.156Z,100824.75
2022-08-19T05:59:58.340Z,100819.09
2022-08-19T06:02:31.642Z,100825.63
2022-08-19T06:04:59.061Z,100833.44
2022-08-19T06:07:26.566Z,100833.31
2022-08-19T06:10:00.246Z,100834.09
2022-08-19T06:12:32.662Z,100835.16
2022-08-19T06:15:06.089Z,100835.34
2022-08-19T06:17:35.683Z,100844.25
2022-08-19T06:20:14.316Z,100849.41
2022-08-19T06:22:44.106Z,100858.22
2022-08-19T06:25:12.851Z,100852.00
2022-08-19T06:27:58.575Z,100855.47
2022-08-19T06:30:26.840Z,100858.84
2022-08-19T06:32:53.719Z,100855.25
2022-08-19T06:35:20.915Z,100848.28
2022-08-19T06:37:48.021Z,100856.19
2022-08-19T06:40:15.075Z,100857.25
2022-08-19T06:42:52.313Z,100840.47
2022-08-19T06:45:24.861Z,100843.91
2022-08-19T06:48:01.669Z,100845.56
2022-08-19T06:50:28.565Z,100848.19
2022-08-19T06:52:55.659Z,100843.63
2022-08-19T06:55:22.798Z,100837.66
2022-08-19T06:57:54.329Z,100843.06
2022-08-19T07:00:21.634Z,100847.56
2022-08-19T07:02:53.344Z,100829.97
2022-08-19T07:05:25.971Z,100851.41
2022-08-19T07:07:52.859Z,100855.53
2022-08-19T07:10:20.204Z,100863.13
2022-08-19T07:12:47.478Z,100858.66
2022-08-19T07:15:14.386Z,100857.97
2022-08-19T07:17:42.287Z,100867.34
2022-08-19T07:20:10.301Z,100864.53
2022-08-19T07:22:40.766Z,100847.66
2022-08-19T07:25:09.869Z,100851.19
2022-08-19T07:27:38.086Z,100834.47
2022-08-19T07:30:11.615Z,100828.75
2022-08-19T07:32:39.798Z,100825.81
2022-08-19T07:35:07.880Z,100832.38
2022-08-19T07:37:37.929Z,100828.25
2022-08-19T07:40:07.648Z,100820.22
2022-08-19T07:42:34.588Z,100822.00
2022-08-19T07:45:01.469Z,100830.81
2022-08-19T07:47:48.872Z,100841.53
2022-08-19T07:50:17.409Z,100852.41
2022-08-19T07:52:47.108Z,100848.09
2022-08-19T07:55:41.999Z,100855.19
2022-08-19T07:58:05.973Z,100863.28
2022-08-19T08:00:33.183Z,100872.16
2022-08-19T08:03:00.116Z,100869.31
2022-08-19T08:05:45.494Z,100864.63
2022-08-19T08:08:33.499Z,100857.50
2022-08-19T08:11:01.328Z,100848.84
2022-08-19T08:13:28.907Z,100840.13
2022-08-19T08:15:57.447Z,100831.59
2022-08-19T08:18:30.439Z,100821.88
2022-08-19T08:20:59.038Z,100801.50
2022-08-19T08:23:27.316Z,100805.75
2022-08-19T08:25:58.079Z,100807.41
2022-08-19T08:28:29.605Z,100811.78
2022-08-19T08:30:58.445Z,100833.09
2022-08-19T08:33:34.413Z,100845.25
2022-08-19T08:36:09.582Z,100837.13
2022-08-19T08:38:41.367Z,100827.13
2022-08-19T08:41:29.717Z,100834.94
2022-08-19T08:43:58.251Z,100826.84
2022-08-19T08:46:46.348Z,100844.91
2022-08-19T08:50:19.534Z,100855.31
2022-08-19T08:52:52.069Z,100858.63
2022-08-19T08:55:24.217Z,100856.38
2022-08-19T08:58:07.930Z,100861.25
2022-08-19T09:00:41.177Z,100867.16
2022-08-19T09:03:23.808Z,100873.84
2022-08-19T09:06:03.456Z,100872.59
2022-08-19T09:08:56.686Z,100870.56
2022-08-19T09:11:49.055Z,100862.38
2022-08-19T09:14:51.156Z,100857.50
2022-08-19T09:17:34.621Z,100851.84
2022-08-19T09:20:26.231Z,100849.78
2022-08-19T09:22:53.406Z,100848.59
2022-08-19T09:25:26.787Z,100841.44
2022-08-19T09:28:02.442Z,100846.69
2022-08-19T09:30:35.452Z,100845.66
2022-08-19T09:33:02.688Z,100856.00
2022-08-19T09:35:31.283Z,100865.63
2022-08-19T09:38:00.015Z,100858.34
2022-08-19T09:40:35.465Z,100860.06
2022-08-19T09:43:10.007Z,100870.50
2022-08-19T09:45:39.836Z,100872.16
2022-08-19T09:48:07.082Z,100888.00
2022-08-19T09:50:35.120Z,100880.13
2022-08-19T09:53:02.096Z,100884.03
2022-08-19T09:55:31.316Z,100875.19
2022-08-19T09:58:01.583Z,100877.84
2022-08-19T10:00:28.492Z,100875.88
2022-08-19T10:02:55.416Z,100867.84
2022-08-19T10:05:42.338Z,100865.81
2022-08-19T10:08:13.373Z,100856.81
2022-08-19T10:10:46.802Z,100857.25
2022-08-19T10:13:27.083Z,100853.25
2022-08-19T10:15:58.134Z,100856.38
2022-08-19T10:18:26.467Z,100856.69
2022-08-19T10:21:11.679Z,100856.22
2022-08-19T10:23:42.439Z,100857.47
2022-08-19T10:26:09.380Z,100857.84
2022-08-19T10:28:40.751Z,100861.66
2022-08-19T10:31:18.279Z,100866.59
2022-08-19T10:33:53.960Z,100865.06
2022-08-19T10:36:23.839Z,100866.53
2022-08-19T10:38:56.842Z,100872.31
2022-08-19T10:41:28.886Z,100875.50
2022-08-19T10:44:04.498Z,100869.69
2022-08-19T10:46:33.592Z,100877.97
2022-08-19T10:49:02.685Z,100871.09
2022-08-19T10:51:49.207Z,100874.00
2022-08-19T10:54:17.599Z,100876.16
2022-08-19T10:56:58.205Z,100882.94
2022-08-19T10:59:33.789Z,100890.25
2022-08-19T11:02:06.563Z,100871.94
2022-08-19T11:04:34.207Z,100868.81
2022-08-19T11:07:02.985Z,100868.47
2022-08-19T11:09:34.011Z,100868.78
2022-08-19T11:12:02.959Z,100866.59
2022-08-19T11:14:34.135Z,100860.91
2022-08-19T11:17:02.566Z,100872.16
2022-08-19T11:19:29.501Z,100869.03
2022-08-19T11:21:57.502Z,100856.16
2022-08-19T11:24:26.791Z,100849.50
2022-08-19T11:26:59.946Z,100851.63
2022-08-19T11:29:28.687Z,100852.97
2022-08-19T11:31:55.991Z,100850.00
2022-08-19T11:34:26.391Z,100855.16
2022-08-19T11:36:58.987Z,100851.22
2022-08-19T11:39:28.291Z,100857.25
2022-08-19T11:41:55.387Z,100853.63
2022-08-19T11:44:22.317Z,100849.97
2022-08-19T11:46:49.231Z,100856.22
2022-08-19T11:49:19.708Z,100854.28
2022-08-19T11:51:47.966Z,100833.00
2022-08-19T11:54:17.121Z,100863.19
2022-08-19T11:56:46.524Z,100862.28
2022-08-19T11:59:15.043Z,100859.75
2022-08-19T12:01:43.527Z,100862.63
2022-08-19T12:04:11.644Z,100862.00
2022-08-19T12:06:41.120Z,100867.56
2022-08-19T12:09:10.945Z,100869.47
2022-08-19T12:11:39.613Z,100869.38
2022-08-19T12:14:07.969Z,100853.34
2022-08-19T12:16:36.208Z,100858.69
2022-08-19T12:19:06.237Z,100855.53
2022-08-19T12:21:36.102Z,100862.50
2022-08-19T12:24:05.955Z,100861.91
2022-08-19T12:26:33.643Z,100861.91
2022-08-19T12:29:23.363Z,100857.53
2022-08-19T12:31:51.421Z,100863.66
2022-08-19T12:34:18.383Z,100860.22
2022-08-19T12:36:45.275Z,100868.44
2022-08-19T12:39:12.296Z,100864.28
2022-08-19T12:41:43.332Z,100873.19
2022-08-19T12:44:19.351Z,100875.66
2022-08-19T12:46:47.799Z,100875.47
2022-08-19T12:49:52.200Z,100872.91
2022-08-19T12:52:09.624Z,100873.75
2022-08-19T12:54:38.192Z,100879.38
2022-08-19T12:57:09.743Z,100872.88
2022-08-19T12:59:37.827Z,100878.03
2022-08-19T13:02:07.193Z,100887.19
2022-08-19T13:04:37.293Z,100890.81
2022-08-19T13:07:05.092Z,100895.19
2022-08-19T13:09:31.998Z,100890.75
2022-08-19T13:11:58.936Z,100888.66
2022-08-19T13:14:27.072Z,100899.03
2022-08-19T13:16:54.098Z,100894.56
2022-08-19T13:19:24.074Z,100882.91
2022-08-19T13:21:51.985Z,100890.94
2022-08-19T13:24:29.468Z,100883.31
2022-08-19T13:27:03.532Z,100880.22
2022-08-19T13:29:49.270Z,100874.19
2022-08-19T13:32:34.789Z,100873.31
2022-08-19T13:35:04.258Z,100881.22
2022-08-19T13:37:49.050Z,100868.06
2022-08-19T13:40:20.032Z,100864.47
2022-08-19T13:42:49.450Z,100871.59
2022-08-19T13:45:23.809Z,100876.34
2022-08-19T13:47:57.127Z,100876.28
2022-08-19T13:50:29.516Z,100875.84
2022-08-19T13:52:57.423Z,100875.44
2022-08-19T13:55:25.765Z,100872.19
2022-08-19T13:57:59.519Z,100878.50
2022-08-19T14:00:30.437Z,100876.41
2022-08-19T14:02:58.703Z,100866.22
2022-08-19T14:05:28.547Z,100864.97
2022-08-19T14:07:56.756Z,100863.06
2022-08-19T14:10:24.990Z,100853.81
2022-08-19T14:13:02.332Z,100858.38
2022-08-19T14:15:30.015Z,100856.66
2022-08-19T14:17:57.455Z,100855.91
2022-08-19T14:20:25.913Z,100853.66
2022-08-19T14:22:54.141Z,100861.00
2022-08-19T14:25:26.828Z,100858.34
2022-08-19T14:27:54.024Z,100862.47
2022-08-19T14:30:29.258Z,100866.78
2022-08-19T14:32:59.157Z,100856.16
2022-08-19T14:35:28.243Z,100861.69
2022-08-19T14:37:56.913Z,100861.09
2022-08-19T14:40:28.552Z,100862.59
2022-08-19T14:43:04.672Z,100864.63
2022-08-19T14:45:35.066Z,100848.94
2022-08-19T14:48:05.545Z,100859.94
2022-08-19T14:50:33.812Z,100856.22
2022-08-19T14:53:11.851Z,100855.25
2022-08-19T14:55:43.903Z,100865.00
2022-08-19T14:58:28.415Z,100863.19
2022-08-19T15:00:58.515Z,100859.66
2022-08-19T15:03:26.956Z,100854.59
2022-08-19T15:05:54.271Z,100865.19
2022-08-19T15:08:25.614Z,100863.47
2022-08-19T15:10:53.101Z,100873.28
2022-08-19T15:13:20.066Z,100866.25
2022-08-19T15:15:48.262Z,100866.41
2022-08-19T15:18:15.506Z,100874.72
2022-08-19T15:20:44.444Z,100871.25
2022-08-19T15:23:18.450Z,100867.75
2022-08-19T15:25:45.510Z,100873.16
2022-08-19T15:28:12.632Z,100862.16
2022-08-19T15:30:41.759Z,100867.78
2022-08-19T15:33:09.243Z,100880.34
2022-08-19T15:35:36.208Z,100879.59
2022-08-19T15:38:03.200Z,100875.56
2022-08-19T15:40:30.112Z,100883.19
2022-08-19T15:42:58.755Z,100881.38
2022-08-19T15:45:32.478Z,100875.19
2022-08-19T15:48:01.431Z,100877.94
2022-08-19T15:50:29.200Z,100877.63
2022-08-19T15:53:03.815Z,100874.97
2022-08-19T15:55:36.044Z,100881.16
2022-08-19T15:58:29.910Z,100888.44
2022-08-19T16:01:23.629Z,100892.13
2022-08-19T16:04:14.530Z,100897.59
2022-08-19T16:06:49.773Z,100895.19
2022-08-19T16:09:22.138Z,100888.97
2022-08-19T16:11:56.900Z,100897.00
2022-08-19T16:14:25.501Z,100890.03
2022-08-19T16:16:54.025Z,100893.72
2022-08-19T16:19:20.943Z,100901.91
2022-08-19T16:21:52.400Z,100918.00
2022-08-19T16:24:27.247Z,100914.78
2022-08-19T16:26:54.974Z,100909.81
2022-08-19T16:29:33.319Z,100907.22
2022-08-19T16:32:05.005Z,100916.78
2022-08-19T16:34:32.331Z,100918.44
2022-08-19T16:37:00.649Z,100923.66
2022-08-19T16:39:27.593Z,100921.09
2022-08-19T16:41:54.499Z,100918.59
2022-08-19T16:44:21.966Z,100924.53
2022-08-19T16:46:58.945Z,100924.53
2022-08-19T16:49:53.438Z,100927.47
2022-08-19T16:52:16.891Z,100929.34
2022-08-19T16:54:44.069Z,100939.75
2022-08-19T16:57:12.930Z,100938.81
2022-08-19T16:59:43.765Z,100943.22
2022-08-19T17:02:23.179Z,100945.97
2022-08-19T17:04:57.792Z,100950.31
2022-08-19T17:07:27.942Z,100940.69
2022-08-19T17:09:55.822Z,100944.25
2022-08-19T17:12:30.475Z,100936.66
2022-08-19T17:15:05.131Z,100944.38
2022-08-19T17:17:32.453Z,100938.31
2022-08-19T17:20:01.182Z,100935.72
2022-08-19T17:22:28.824Z,100936.66
2022-08-19T17:24:56.318Z,100929.59
2022-08-19T17:27:25.928Z,100927.03
2022-08-19T17:29:52.975Z,100930.72
2022-08-19T17:32:25.226Z,100932.63
2022-08-19T17:34:54.087Z,100927.47
2022-08-19T17:37:21.680Z,100928.56
2022-08-19T17:39:48.957Z,100931.28
2022-08-19T17:42:15.887Z,100924.69
2022-08-19T17:44:42.897Z,100940.72
2022-08-19T17:47:13.871Z,100932.03
2022-08-19T17:49:40.880Z,100924.22
2022-08-19T17:52:10.054Z,100916.47
2022-08-19T17:54:37.347Z,100919.97
2022-08-19T17:57:04.470Z,100921.84
2022-08-19T17:59:31.363Z,100918.34
2022-08-19T18:01:59.964Z,100915.84
2022-08-19T18:04:27.468Z,100915.97
2022-08-19T18:06:55.799Z,100916.25
2022-08-19T18:09:28.697Z,100914.63
2022-08-19T18:12:11.289Z,100902.69
2022-08-19T18:14:39.247Z,100905.22
2022-08-19T18:17:10.774Z,100902.78
2022-08-19T18:19:42.061Z,100910.00
2022-08-19T18:22:23.831Z,100900.63
2022-08-19T18:24:51.379Z,100906.19
2022-08-19T18:27:18.326Z,100910.03
2022-08-19T18:29:45.490Z,100918.19
2022-08-19T18:32:12.907Z,100917.44
2022-08-19T18:34:44.429Z,100921.22
2022-08-19T18:37:11.975Z,100922.31
2022-08-19T18:39:57.473Z,100926.00
2022-08-19T18:42:43.372Z,100929.03
2022-08-19T18:45:29.902Z,100931.69
2022-08-19T18:48:26.961Z,100920.38
2022-08-19T18:51:00.187Z,100925.91
2022-08-19T18:53:33.813Z,100932.09
2022-08-19T18:56:00.900Z,100933.81
2022-08-19T18:58:34.681Z,100940.88
2022-08-19T19:01:17.299Z,100934.59
2022-08-19T19:03:52.882Z,100938.22
2022-08-19T19:06:24.943Z,100947.91
2022-08-19T19:08:53.310Z,100945.25
2022-08-19T19:11:29.723Z,100945.25
2022-08-19T19:13:57.151Z,100948.06
2022-08-19T19:16:24.755Z,100949.88
2022-08-19T19:18:52.789Z,100951.59
2022-08-19T19:21:25.335Z,100968.50
2022-08-19T19:23:54.563Z,100977.41
2022-08-19T19:26:21.780Z,100981.09
2022-08-19T19:28:49.205Z,100984.88
2022-08-19T19:31:26.685Z,100991.91
2022-08-19T19:33:55.934Z,100995.53
2022-08-19T19:36:23.668Z,100992.75
2022-08-19T19:38:50.662Z,100991.84
2022-08-19T19:41:25.830Z,100996.31
2022-08-19T19:44:23.187Z,101000.84
2022-08-19T19:46:43.037Z,101005.31
2022-08-19T19:49:11.310Z,101010.53
2022-08-19T19:51:39.410Z,101008.03
2022-08-19T19:54:15.040Z,101020.28
2022-08-19T19:56:46.018Z,101016.72
2022-08-19T19:59:13.022Z,101014.94
2022-08-19T20:01:44.297Z,101026.50
2022-08-19T20:04:12.585Z,101026.66
2022-08-19T20:06:39.677Z,101029.34
2022-08-19T20:09:10.524Z,101022.34
2022-08-19T20:11:53.503Z,101010.84
2022-08-19T20:14:26.193Z,101017.09
2022-08-19T20:16:55.651Z,101016.19
2022-08-19T20:19:26.954Z,101022.34
2022-08-19T20:21:55.815Z,101025.03
2022-08-19T20:24:28.335Z,101033.84
2022-08-19T20:26:55.389Z,101033.84
2022-08-19T20:29:38.796Z,101023.31
2022-08-19T20:32:10.194Z,101036.69
2022-08-19T20:34:37.285Z,101039.50
2022-08-19T20:37:04.675Z,101032.44
2022-08-19T20:39:31.693Z,101030.78
2022-08-19T20:41:58.649Z,101021.34
2022-08-19T20:44:25.755Z,101031.88
2022-08-19T20:46:55.477Z,101032.78
2022-08-19T20:49:27.009Z,101039.91
2022-08-19T20:51:55.886Z,101046.41
2022-08-19T20:54:24.160Z,101041.94
2022-08-19T20:56:51.676Z,101042.00
2022-08-19T20:59:20.420Z,101034.91
2022-08-19T21:01:47.955Z,101033.34
2022-08-19T21:04:15.202Z,101033.28
2022-08-19T21:06:45.515Z,101038.66
2022-08-19T21:09:13.699Z,101032.56
2022-08-19T21:11:40.833Z,101027.31
2022-08-19T21:14:07.827Z,101019.34
2022-08-19T21:16:34.787Z,101014.88
2022-08-19T21:19:01.721Z,101022.00
2022-08-19T21:21:28.878Z,101030.03
2022-08-19T21:23:55.991Z,101034.66
2022-08-19T21:26:24.285Z,101032.78
2022-08-19T21:28:51.217Z,101028.38
2022-08-19T21:31:18.148Z,101037.31
2022-08-19T21:33:45.619Z,101031.19
2022-08-19T21:36:12.544Z,101022.19
2022-08-19T21:38:39.481Z,101020.56
2022-08-19T21:41:06.947Z,101031.19
2022-08-19T21:43:36.192Z,101021.56
2022-08-19T21:46:04.098Z,101026.94
2022-08-19T21:48:31.009Z,101016.53
2022-08-19T21:50:57.913Z,101021.13
2022-08-19T21:53:24.906Z,101014.25
2022-08-19T21:55:58.619Z,101011.69
2022-08-19T21:58:29.268Z,101002.06
2022-08-19T22:01:06.247Z,101002.16
2022-08-19T22:03:35.419Z,100995.25
2022-08-19T22:06:02.777Z,100989.91
2022-08-19T22:08:29.798Z,100998.03
2022-08-19T22:10:59.119Z,100982.25
2022-08-19T22:13:26.776Z,100987.63
2022-08-19T22:15:55.128Z,100975.31
2022-08-19T22:18:22.067Z,100965.75
2022-08-19T22:20:49.019Z,100957.13
2022-08-19T22:23:16.141Z,100951.81
2022-08-19T22:25:47.239Z,100954.63
2022-08-19T22:28:19.106Z,100953.81
2022-08-19T22:30:54.965Z,100952.09
2022-08-19T22:33:22.532Z,100957.47
2022-08-19T22:35:51.608Z,100957.59
2022-08-19T22:38:19.341Z,100969.94
2022-08-19T22:40:49.103Z,100977.06
2022-08-19T22:43:20.653Z,100978.81
2022-08-19T22:45:49.456Z,100973.47
2022-08-19T22:48:21.373Z,100982.38
2022-08-19T22:51:08.415Z,100985.88
2022-08-19T22:53:41.355Z,100994.81
2022-08-19T22:56:14.986Z,100987.78
2022-08-19T22:58:42.616Z,100990.28
2022-08-19T23:01:14.630Z,100981.41
2022-08-19T23:03:50.146Z,100976.03
2022-08-19T23:06:17.400Z,100978.59
2022-08-19T23:08:44.606Z,100977.69
2022-08-19T23:11:11.903Z,100976.03
2022-08-19T23:13:40.781Z,100974.06
2022-08-19T23:16:08.116Z,100974.06
2022-08-19T23:18:35.143Z,100979.34
2022-08-19T23:21:02.052Z,100971.41
2022-08-19T23:23:29.089Z,100970.56
2022-08-19T23:25:57.146Z,100970.56
2022-08-19T23:28:42.926Z,100967.97
2022-08-19T23:31:11.274Z,100964.56
2022-08-19T23:33:51.898Z,100971.56
2022-08-19T23:36:20.424Z,100973.38
2022-08-19T23:38:49.385Z,100983.06
2022-08-19T23:41:18.597Z,100978.75
2022-08-19T23:43:46.503Z,100984.06
2022-08-19T23:46:27.503Z,100989.22
2022-08-19T23:48:56.262Z,100985.81
2022-08-19T23:51:23.239Z,100988.47
2022-08-19T23:53:50.423Z,100990.19
2022-08-19T23:56:17.330Z,100992.88
2022-08-19T23:58:44.252Z,100992.88
